Time;durP1;ratioP1;P1;durP2;ratioP2;P2;SDS_P1;SDS_P2;PMS_P1;PMS_P2;Temp;Humidity;BMP_temperature;BMP_pressure;BME280_temperature;BME280_humidity;BME280_pressure;Samples;Min_cycle;Max_cycle;Signal;HPM_P1;HPM_P2
2022/10/26 00:01:26;;;;;;;65.17;7.10;;;14.70;1.00;;;;;;5052572;28;20545;-72
2022/10/26 00:03:55;;;;;;;62.47;6.00;;;14.80;1.00;;;;;;5052568;28;20452;-72
2022/10/26 00:06:24;;;;;;;66.10;6.43;;;14.80;1.00;;;;;;5052216;28;20848;-72
2022/10/26 00:08:51;;;;;;;62.47;5.87;;;14.80;1.00;;;;;;5052163;28;20506;-72
2022/10/26 00:11:19;;;;;;;63.53;6.60;;;14.90;1.00;;;;;;5052565;28;20450;-72
2022/10/26 00:13:46;;;;;;;65.43;7.07;;;14.90;1.00;;;;;;5051967;28;20940;-71
2022/10/26 00:16:16;;;;;;;69.83;6.80;;;14.70;1.00;;;;;;5051151;28;20543;-72
2022/10/26 00:18:43;;;;;;;69.00;6.50;;;14.80;1.00;;;;;;5051581;28;20827;-71
2022/10/26 00:21:11;;;;;;;65.90;6.67;;;14.80;1.00;;;;;;5052157;28;20451;-72
2022/10/26 00:23:38;;;;;;;63.40;5.80;;;14.80;1.00;;;;;;5052030;28;20455;-72
2022/10/26 00:26:06;;;;;;;62.60;6.33;;;14.80;1.00;;;;;;5051940;28;20454;-72
2022/10/26 00:28:33;;;;;;;65.00;6.57;;;14.90;1.00;;;;;;5051674;28;20451;-72
2022/10/26 00:31:01;;;;;;;66.17;6.87;;;14.90;1.00;;;;;;5051799;28;20459;-72
2022/10/26 00:33:29;;;;;;;61.20;6.10;;;14.80;1.00;;;;;;5051686;28;20448;-72
2022/10/26 00:35:56;;;;;;;63.00;7.30;;;14.80;1.00;;;;;;5051824;28;20492;-72
2022/10/26 00:38:23;;;;;;;62.70;6.47;;;14.80;1.00;;;;;;5051599;28;20951;-72
2022/10/26 00:40:50;;;;;;;63.97;6.77;;;14.90;1.00;;;;;;5051611;28;20539;-72
2022/10/26 00:43:37;;;;;;;65.07;7.30;;;14.90;1.00;;;;;;5051766;28;20451;-72
2022/10/26 00:46:11;;;;;;;60.97;5.97;;;14.90;1.00;;;;;;5051516;28;20810;-72
2022/10/26 00:48:42;;;;;;;64.03;6.30;;;14.90;1.00;;;;;;5051528;28;20443;-72
2022/10/26 00:51:15;;;;;;;62.10;7.17;;;14.90;1.00;;;;;;5051842;28;20450;-71
2022/10/26 00:53:42;;;;;;;62.83;6.10;;;14.90;1.00;;;;;;5051518;28;20448;-72
2022/10/26 00:56:09;;;;;;;65.07;6.63;;;14.90;1.00;;;;;;5051464;28;20877;-71
2022/10/26 00:58:37;;;;;;;67.77;6.77;;;14.70;1.00;;;;;;5051101;28;20456;-72
2022/10/26 01:01:03;;;;;;;64.50;6.20;;;14.80;1.00;;;;;;5051782;28;20827;-72
2022/10/26 01:03:31;;;;;;;63.40;6.63;;;14.80;1.00;;;;;;5051524;28;20953;-72
2022/10/26 01:05:59;;;;;;;62.00;6.20;;;14.30;1.00;;;;;;5051443;28;20445;-72
2022/10/26 01:08:27;;;;;;;63.17;5.97;;;14.10;1.00;;;;;;5051366;28;20455;-72
2022/10/26 01:10:56;;;;;;;65.07;6.30;;;13.90;1.00;;;;;;5051203;28;20561;-72
2022/10/26 01:13:24;;;;;;;63.87;6.40;;;14.10;1.00;;;;;;5051560;28;20451;-71
2022/10/26 01:16:00;;;;;;;61.30;5.60;;;14.20;1.00;;;;;;5051337;28;20484;-72
2022/10/26 01:18:34;;;;;;;62.00;6.00;;;14.40;1.00;;;;;;5051297;28;20455;-72
2022/10/26 01:21:45;;;;;;;61.90;6.13;;;14.50;1.00;;;;;;5051418;28;20448;-71
2022/10/26 01:24:28;;;;;;;61.70;5.80;;;14.30;1.00;;;;;;5051620;28;20447;-72
2022/10/26 01:27:08;;;;;;;61.43;6.27;;;14.30;1.00;;;;;;5052491;28;20478;-72
2022/10/26 01:29:57;;;;;;;61.33;5.93;;;14.50;1.00;;;;;;5054882;28;20823;-72
2022/10/26 01:32:29;;;;;;;62.27;5.60;;;14.70;1.00;;;;;;5055268;28;21129;-72
2022/10/26 01:35:02;;;;;;;65.30;6.40;;;14.80;1.00;;;;;;5053290;28;20824;-72
2022/10/26 01:37:34;;;;;;;65.87;6.10;;;14.80;1.00;;;;;;5054931;28;20552;-72
2022/10/26 01:40:06;;;;;;;64.97;5.73;;;14.70;1.00;;;;;;5054657;28;20966;-72
2022/10/26 01:42:34;;;;;;;62.63;6.07;;;14.80;1.00;;;;;;5054902;28;20979;-72
2022/10/26 01:45:06;;;;;;;71.93;6.67;;;14.90;1.00;;;;;;5054990;28;20527;-72
2022/10/26 01:47:36;;;;;;;64.40;6.73;;;15.00;1.00;;;;;;5054786;28;20477;-72
2022/10/26 01:50:05;;;;;;;61.47;4.90;;;15.00;1.00;;;;;;5054368;28;20456;-72
2022/10/26 01:52:32;;;;;;;62.47;7.03;;;14.90;1.00;;;;;;5054933;28;20562;-72
2022/10/26 01:55:02;;;;;;;65.10;6.53;;;14.90;1.00;;;;;;5054768;28;20509;-72
2022/10/26 01:57:32;;;;;;;62.77;6.07;;;14.90;1.00;;;;;;5054803;28;20533;-72
2022/10/26 02:00:07;;;;;;;63.23;5.80;;;15.00;1.00;;;;;;5054618;28;20441;-72
2022/10/26 02:03:00;;;;;;;63.27;6.60;;;14.90;1.00;;;;;;5054473;28;20454;-72
2022/10/26 02:05:48;;;;;;;61.87;6.10;;;15.00;1.00;;;;;;5054725;28;20452;-73
2022/10/26 02:08:26;;;;;;;64.37;6.87;;;15.00;1.00;;;;;;5054432;28;20452;-73
2022/10/26 02:11:04;;;;;;;64.87;6.67;;;15.00;1.00;;;;;;5054124;28;20446;-73
2022/10/26 02:13:40;;;;;;;65.10;6.20;;;15.00;1.00;;;;;;5054597;28;20456;-73
2022/10/26 02:16:16;;;;;;;63.37;6.30;;;15.00;1.00;;;;;;5054217;28;20480;-74
2022/10/26 02:18:51;;;;;;;62.50;6.30;;;15.00;1.00;;;;;;5053959;28;20456;-74
2022/10/26 02:21:22;;;;;;;64.00;6.87;;;15.00;1.00;;;;;;5054117;28;20454;-74
2022/10/26 02:23:51;;;;;;;65.40;6.57;;;14.80;1.00;;;;;;5054438;28;20456;-73
2022/10/26 02:26:22;;;;;;;63.97;6.53;;;14.60;1.00;;;;;;5054115;28;20469;-73
2022/10/26 02:28:54;;;;;;;67.00;6.80;;;13.80;1.00;;;;;;5053849;28;20452;-74
2022/10/26 02:31:21;;;;;;;68.40;7.00;;;13.80;1.00;;;;;;5054063;28;20460;-74
2022/10/26 02:33:51;;;;;;;62.60;5.90;;;14.00;1.00;;;;;;5053926;28;20455;-73
2022/10/26 02:36:24;;;;;;;64.20;6.73;;;13.90;1.00;;;;;;5054008;28;20499;-73
2022/10/26 02:38:52;;;;;;;61.70;6.30;;;14.10;1.00;;;;;;5052626;28;20466;-73
2022/10/26 02:41:20;;;;;;;63.13;6.30;;;14.00;1.00;;;;;;5053862;28;20448;-73
2022/10/26 02:43:53;;;;;;;62.27;6.83;;;14.20;1.00;;;;;;5053848;28;20448;-73
2022/10/26 02:46:25;;;;;;;62.00;6.77;;;14.10;1.00;;;;;;5053649;28;20486;-73
2022/10/26 02:48:53;;;;;;;61.20;5.73;;;13.90;1.00;;;;;;5053674;28;20448;-73
2022/10/26 02:51:26;;;;;;;62.63;5.97;;;14.10;1.00;;;;;;5053662;28;20981;-73
2022/10/26 02:53:57;;;;;;;63.47;6.30;;;14.30;1.00;;;;;;5053834;28;20448;-73
2022/10/26 02:56:29;;;;;;;64.83;6.73;;;14.40;1.00;;;;;;5053403;28;20488;-74
2022/10/26 02:58:59;;;;;;;66.40;6.20;;;14.60;1.00;;;;;;5053084;28;20454;-74
2022/10/26 03:01:27;;;;;;;65.70;6.30;;;14.60;1.00;;;;;;5053641;28;20459;-73
2022/10/26 03:03:59;;;;;;;61.90;6.23;;;14.70;1.00;;;;;;5053364;28;20937;-73
2022/10/26 03:06:26;;;;;;;62.00;6.20;;;14.70;1.00;;;;;;5053488;28;20469;-73
2022/10/26 03:08:53;;;;;;;64.40;6.40;;;14.80;1.00;;;;;;5053049;28;20460;-73
2022/10/26 03:11:20;;;;;;;64.47;6.20;;;14.70;1.00;;;;;;5053223;28;20900;-73
2022/10/26 03:13:47;;;;;;;63.97;6.13;;;14.70;1.00;;;;;;5053470;28;20452;-73
2022/10/26 03:16:13;;;;;;;63.63;6.07;;;14.70;1.00;;;;;;5052976;28;20492;-73
2022/10/26 03:18:40;;;;;;;62.40;6.00;;;14.70;1.00;;;;;;5052865;28;20464;-72
2022/10/26 03:21:08;;;;;;;62.20;6.10;;;14.60;1.00;;;;;;5053161;28;20452;-73
2022/10/26 03:23:35;;;;;;;60.40;5.37;;;14.60;1.00;;;;;;5053067;28;20539;-73
2022/10/26 03:26:02;;;;;;;66.07;6.87;;;14.60;1.00;;;;;;5052868;28;20452;-73
2022/10/26 03:28:29;;;;;;;64.20;6.20;;;14.70;1.00;;;;;;5053022;28;20455;-74
2022/10/26 03:30:55;;;;;;;62.07;5.97;;;14.70;1.00;;;;;;5053071;28;20470;-73
2022/10/26 03:33:22;;;;;;;63.43;7.03;;;14.70;1.00;;;;;;5053028;28;20855;-73
2022/10/26 03:35:55;;;;;;;68.00;7.10;;;14.70;1.00;;;;;;5052741;28;20480;-73
2022/10/26 03:38:24;;;;;;;60.97;5.90;;;14.50;1.00;;;;;;5052646;28;20456;-73
2022/10/26 03:40:50;;;;;;;67.80;6.20;;;14.50;1.00;;;;;;5052645;28;20503;-73
2022/10/26 03:43:17;;;;;;;62.83;6.60;;;14.60;1.00;;;;;;5052754;28;20448;-74
2022/10/26 03:45:44;;;;;;;61.83;6.77;;;14.70;1.00;;;;;;5052773;28;20456;-73
2022/10/26 03:48:11;;;;;;;67.43;6.23;;;14.70;1.00;;;;;;5052712;28;20474;-73
2022/10/26 03:50:38;;;;;;;63.37;7.30;;;14.80;1.00;;;;;;5052238;28;20478;-73
2022/10/26 03:53:05;;;;;;;65.10;6.83;;;14.80;1.00;;;;;;5052679;28;20820;-73
2022/10/26 03:55:33;;;;;;;65.40;7.37;;;14.90;1.00;;;;;;5052552;28;20491;-74
2022/10/26 03:58:00;;;;;;;68.63;6.90;;;14.90;1.00;;;;;;5052344;28;21048;-73
2022/10/26 04:00:27;;;;;;;63.67;6.63;;;14.80;1.00;;;;;;5052181;28;20444;-73
2022/10/26 04:02:55;;;;;;;60.90;6.30;;;14.60;1.00;;;;;;5052329;28;20519;-74
2022/10/26 04:05:22;;;;;;;63.87;7.20;;;14.20;1.00;;;;;;5052133;28;20959;-74
2022/10/26 04:07:52;;;;;;;63.80;7.00;;;13.70;1.00;;;;;;5052091;28;20980;-73
2022/10/26 04:10:19;;;;;;;63.37;7.00;;;13.60;1.00;;;;;;5052044;28;20455;-73
2022/10/26 04:12:47;;;;;;;65.53;6.63;;;13.70;1.00;;;;;;5052217;28;20821;-73
2022/10/26 04:15:15;;;;;;;63.13;6.60;;;13.90;1.00;;;;;;5052097;28;20479;-74
2022/10/26 04:17:42;;;;;;;66.13;7.03;;;14.20;1.00;;;;;;5051969;28;20474;-73
2022/10/26 04:20:10;;;;;;;67.33;6.83;;;14.40;1.00;;;;;;5051530;28;20547;-73
2022/10/26 04:22:37;;;;;;;62.10;6.23;;;14.40;1.00;;;;;;5052168;28;20455;-73
2022/10/26 04:25:04;;;;;;;66.33;6.90;;;14.40;1.00;;;;;;5052022;28;20453;-73
2022/10/26 04:27:31;;;;;;;65.40;7.20;;;14.50;1.00;;;;;;5051921;28;20478;-73
2022/10/26 04:29:59;;;;;;;64.07;6.90;;;14.50;1.00;;;;;;5051502;28;20467;-73
2022/10/26 04:32:27;;;;;;;63.83;6.83;;;14.50;1.00;;;;;;5051874;28;20456;-73
2022/10/26 04:34:54;;;;;;;62.37;6.40;;;14.50;1.00;;;;;;5051683;28;20453;-73
2022/10/26 04:37:21;;;;;;;64.57;6.77;;;14.60;1.00;;;;;;5051663;28;21100;-73
2022/10/26 04:39:47;;;;;;;65.07;7.40;;;14.70;1.00;;;;;;5051585;28;20444;-73
2022/10/26 04:42:14;;;;;;;64.50;6.13;;;14.30;1.00;;;;;;5051960;28;20451;-73
2022/10/26 04:44:41;;;;;;;76.13;7.60;;;14.20;1.00;;;;;;5051707;28;20831;-73
2022/10/26 04:47:09;;;;;;;64.00;7.30;;;14.10;1.00;;;;;;5051537;28;20547;-73
2022/10/26 04:49:36;;;;;;;65.17;7.17;;;13.90;1.00;;;;;;5051456;28;20454;-73
2022/10/26 04:52:05;;;;;;;65.20;7.70;;;14.20;1.00;;;;;;5051814;28;20450;-73
2022/10/26 04:54:31;;;;;;;63.80;6.33;;;13.80;1.00;;;;;;5051710;28;20480;-73
2022/10/26 04:56:59;;;;;;;62.70;6.10;;;13.90;1.00;;;;;;5051322;28;20498;-73
2022/10/26 04:59:25;;;;;;;65.67;7.40;;;14.20;1.00;;;;;;5051325;28;20452;-73
2022/10/26 05:01:52;;;;;;;66.40;7.27;;;14.50;1.00;;;;;;5052725;28;20943;-73
2022/10/26 05:04:20;;;;;;;68.20;6.57;;;14.60;1.00;;;;;;5055804;28;20450;-73
2022/10/26 05:06:47;;;;;;;62.60;6.77;;;14.70;1.00;;;;;;5055726;28;20482;-73
2022/10/26 05:09:14;;;;;;;62.03;6.20;;;14.70;1.00;;;;;;5055159;28;21015;-74
2022/10/26 05:11:41;;;;;;;62.07;6.50;;;14.70;1.00;;;;;;5055649;28;20522;-73
2022/10/26 05:14:08;;;;;;;64.37;6.50;;;14.70;1.00;;;;;;5055428;28;20459;-74
2022/10/26 05:16:35;;;;;;;62.03;6.03;;;14.70;1.00;;;;;;5055521;28;20488;-73
2022/10/26 05:19:02;;;;;;;64.73;6.63;;;14.50;1.00;;;;;;5055003;28;20844;-74
2022/10/26 05:21:30;;;;;;;64.50;5.93;;;14.60;1.00;;;;;;5055443;28;20448;-73
2022/10/26 05:23:57;;;;;;;62.77;5.70;;;14.80;1.00;;;;;;5055308;28;20475;-73
2022/10/26 05:26:24;;;;;;;62.20;5.97;;;14.90;1.00;;;;;;5055198;28;20464;-73
2022/10/26 05:28:52;;;;;;;61.77;6.40;;;15.00;1.00;;;;;;5054922;28;20459;-74
2022/10/26 05:31:19;;;;;;;62.37;6.17;;;15.00;1.00;;;;;;5055139;28;20582;-74
2022/10/26 05:33:49;;;;;;;66.80;6.00;;;14.90;1.00;;;;;;5055287;28;20833;-73
2022/10/26 05:36:16;;;;;;;65.07;6.67;;;14.60;1.00;;;;;;5054956;28;20502;-73
2022/10/26 05:38:44;;;;;;;67.63;7.03;;;14.30;1.00;;;;;;5055045;28;20444;-74
2022/10/26 05:41:12;;;;;;;62.80;6.20;;;14.60;1.00;;;;;;5055447;28;20462;-73
2022/10/26 05:43:39;;;;;;;60.40;5.87;;;14.60;1.00;;;;;;5054950;28;20946;-74
2022/10/26 05:46:05;;;;;;;62.40;5.67;;;14.80;1.00;;;;;;5054831;28;20463;-73
2022/10/26 05:48:32;;;;;;;62.90;6.37;;;14.90;1.00;;;;;;5054667;28;20462;-73
2022/10/26 05:51:00;;;;;;;64.80;6.87;;;15.10;1.00;;;;;;5054750;28;20459;-73
2022/10/26 05:53:27;;;;;;;65.87;6.23;;;15.10;1.00;;;;;;5055246;28;20451;-74
2022/10/26 05:55:56;;;;;;;63.10;6.33;;;15.10;1.00;;;;;;5054497;28;20502;-73
2022/10/26 05:58:24;;;;;;;68.80;6.30;;;14.70;1.00;;;;;;5054741;28;20448;-73
2022/10/26 06:01:07;;;;;;;61.90;5.70;;;14.80;1.00;;;;;;5054608;28;20994;-73
2022/10/26 06:03:44;;;;;;;61.07;5.93;;;15.00;1.00;;;;;;5054651;28;20821;-73
2022/10/26 06:06:12;;;;;;;62.17;6.20;;;15.00;1.00;;;;;;5054688;28;20991;-73
2022/10/26 06:08:41;;;;;;;63.40;5.50;;;15.20;1.00;;;;;;5054316;28;20817;-73
2022/10/26 06:11:11;;;;;;;64.63;5.70;;;15.10;1.00;;;;;;5054661;28;20455;-73
2022/10/26 06:13:38;;;;;;;64.60;6.33;;;15.00;1.00;;;;;;5054431;28;20531;-73
2022/10/26 06:16:18;;;;;;;62.63;5.80;;;15.10;1.00;;;;;;5054237;28;20486;-73
2022/10/26 06:18:54;;;;;;;61.00;5.80;;;15.30;1.00;;;;;;5053862;28;20467;-73
2022/10/26 06:21:37;;;;;;;60.67;5.70;;;15.30;1.00;;;;;;5054416;28;20944;-73
2022/10/26 06:24:09;;;;;;;64.67;6.30;;;15.40;1.00;;;;;;5054354;28;20448;-73
2022/10/26 06:26:45;;;;;;;62.23;5.70;;;15.60;1.00;;;;;;5054428;28;20468;-73
2022/10/26 06:29:28;;;;;;;62.30;5.80;;;15.60;1.00;;;;;;5054349;28;20447;-73
2022/10/26 06:31:55;;;;;;;62.53;5.70;;;15.70;1.00;;;;;;5054137;28;20967;-73
2022/10/26 06:34:27;;;;;;;62.73;5.50;;;15.80;1.00;;;;;;5054312;28;20527;-73
2022/10/26 06:36:55;;;;;;;61.40;5.60;;;15.70;1.00;;;;;;5054111;28;20495;-72
2022/10/26 06:39:24;;;;;;;61.20;5.60;;;15.90;1.00;;;;;;5053682;28;20952;-73
2022/10/26 06:41:52;;;;;;;61.60;5.90;;;15.90;1.00;;;;;;5053832;28;20464;-73
2022/10/26 06:44:23;;;;;;;62.87;5.83;;;15.80;1.00;;;;;;5054137;28;20449;-73
2022/10/26 06:46:57;;;;;;;64.10;6.10;;;15.70;1.00;;;;;;5053836;28;20464;-73
2022/10/26 06:49:30;;;;;;;62.57;5.50;;;15.80;1.00;;;;;;5053507;28;20447;-73
2022/10/26 06:51:59;;;;;;;62.60;5.63;;;15.70;1.00;;;;;;5053884;28;20818;-73
2022/10/26 06:54:36;;;;;;;62.20;6.10;;;15.80;1.00;;;;;;5054086;28;20444;-73
2022/10/26 06:57:04;;;;;;;63.10;5.77;;;15.90;1.00;;;;;;5053669;28;20963;-73
2022/10/26 06:59:37;;;;;;;61.10;5.47;;;15.90;1.00;;;;;;5053317;28;20464;-73
2022/10/26 07:02:04;;;;;;;62.23;6.30;;;15.90;1.00;;;;;;5053614;28;20464;-73
2022/10/26 07:04:31;;;;;;;64.13;5.67;;;15.80;1.00;;;;;;5053389;28;20452;-73
2022/10/26 07:06:58;;;;;;;66.43;9.27;;;15.80;1.00;;;;;;5053677;28;20464;-73
2022/10/26 07:09:24;;;;;;;65.70;6.90;;;15.80;1.00;;;;;;5053171;28;20452;-73
2022/10/26 07:11:51;;;;;;;63.17;6.50;;;15.40;1.00;;;;;;5053780;28;20833;-73
2022/10/26 07:14:19;;;;;;;63.80;6.37;;;15.40;1.00;;;;;;5053604;28;20452;-73
2022/10/26 07:16:46;;;;;;;62.40;5.93;;;15.60;1.00;;;;;;5053250;28;20574;-73
2022/10/26 07:19:13;;;;;;;63.47;7.90;;;15.50;1.00;;;;;;5053039;28;20978;-72
2022/10/26 07:21:40;;;;;;;74.80;7.30;;;15.70;1.00;;;;;;5053379;28;20463;-73
2022/10/26 07:24:07;;;;;;;67.10;8.90;;;15.80;1.00;;;;;;5052838;28;20463;-73
2022/10/26 07:26:34;;;;;;;69.10;11.27;;;15.80;1.00;;;;;;5053232;28;20466;-73
2022/10/26 07:29:01;;;;;;;65.20;7.40;;;15.70;1.00;;;;;;5052982;28;20799;-73
2022/10/26 07:31:29;;;;;;;64.63;6.93;;;15.80;1.00;;;;;;5052873;28;20813;-73
2022/10/26 07:33:56;;;;;;;62.80;6.60;;;16.00;1.00;;;;;;5052807;28;20444;-73
2022/10/26 07:36:23;;;;;;;61.73;6.77;;;15.80;1.00;;;;;;5052653;28;21000;-73
2022/10/26 07:38:52;;;;;;;63.70;7.13;;;15.90;1.00;;;;;;5052733;28;20452;-73
2022/10/26 07:41:19;;;;;;;63.57;7.00;;;16.00;1.00;;;;;;5053046;28;20957;-72
2022/10/26 07:43:47;;;;;;;61.83;6.53;;;16.20;1.00;;;;;;5052704;28;20452;-73
2022/10/26 07:46:14;;;;;;;63.57;6.50;;;16.20;1.00;;;;;;5052401;28;20521;-73
2022/10/26 07:48:43;;;;;;;63.47;7.07;;;16.30;1.00;;;;;;5052432;28;20451;-73
2022/10/26 07:51:10;;;;;;;64.73;7.17;;;16.30;1.00;;;;;;5052818;28;20460;-72
2022/10/26 07:53:36;;;;;;;66.40;8.20;;;16.30;1.00;;;;;;5052871;28;20449;-73
2022/10/26 07:56:03;;;;;;;65.20;8.00;;;16.20;1.00;;;;;;5052408;28;20479;-73
2022/10/26 07:58:30;;;;;;;66.30;8.43;;;16.30;1.00;;;;;;5052241;28;20456;-73
2022/10/26 08:00:57;;;;;;;65.10;7.97;;;16.40;1.00;;;;;;5052172;28;20544;-73
2022/10/26 08:03:24;;;;;;;71.67;12.50;;;16.50;1.00;;;;;;5052502;28;20749;-73
2022/10/26 08:05:54;;;;;;;65.27;9.10;;;16.60;1.00;;;;;;5052079;28;20455;-72
2022/10/26 08:08:22;;;;;;;69.00;7.47;;;16.70;1.00;;;;;;5052181;28;20945;-73
2022/10/26 08:10:49;;;;;;;64.50;7.30;;;16.90;1.00;;;;;;5052090;28;20452;-73
2022/10/26 08:13:16;;;;;;;67.33;7.17;;;17.00;1.00;;;;;;5052100;28;20479;-73
2022/10/26 08:15:43;;;;;;;76.13;6.83;;;17.10;1.00;;;;;;5052273;28;20456;-73
2022/10/26 08:18:10;;;;;;;63.63;7.73;;;17.00;1.00;;;;;;5052043;28;20587;-73
2022/10/26 08:20:37;;;;;;;65.70;6.20;;;17.00;1.00;;;;;;5051427;28;20460;-73
2022/10/26 08:23:05;;;;;;;61.27;5.90;;;17.20;1.00;;;;;;5052106;28;20459;-72
2022/10/26 08:25:32;;;;;;;62.43;6.33;;;17.30;1.00;;;;;;5051893;28;20980;-73
2022/10/26 08:28:02;;;;;;;63.33;6.93;;;17.40;1.00;;;;;;5051767;28;20473;-72
2022/10/26 08:30:29;;;;;;;69.40;7.90;;;17.30;1.00;;;;;;5051567;28;20456;-73
2022/10/26 08:32:59;;;;;;;64.77;6.90;;;17.40;1.00;;;;;;5052002;28;20835;-72
2022/10/26 08:35:26;;;;;;;74.00;8.70;;;17.20;1.00;;;;;;5051848;28;20452;-72
2022/10/26 08:37:53;;;;;;;66.20;8.80;;;17.00;1.00;;;;;;5050951;28;20496;-72
2022/10/26 08:40:24;;;;;;;62.30;6.30;;;17.00;1.00;;;;;;5051625;28;20452;-72
2022/10/26 08:42:57;;;;;;;69.90;7.43;;;17.30;1.00;;;;;;5051934;28;20452;-72
2022/10/26 08:45:27;;;;;;;68.90;7.43;;;17.50;1.00;;;;;;5051842;28;20443;-72
2022/10/26 08:47:58;;;;;;;68.00;7.10;;;17.60;1.00;;;;;;5051735;28;20824;-70
2022/10/26 08:50:27;;;;;;;65.33;7.57;;;17.70;1.00;;;;;;5051394;28;20451;-70
2022/10/26 08:53:02;;;;;;;67.20;7.00;;;17.60;1.00;;;;;;5051521;28;20452;-70
2022/10/26 08:55:38;;;;;;;63.67;6.57;;;17.80;1.00;;;;;;5051573;28;20457;-70
2022/10/26 08:58:13;;;;;;;67.80;7.00;;;18.00;1.00;;;;;;5051581;28;20487;-70
2022/10/26 09:00:40;;;;;;;63.33;6.33;;;18.00;1.00;;;;;;5051299;28;20920;-70
2022/10/26 09:03:14;;;;;;;63.47;6.90;;;17.70;1.00;;;;;;5051529;28;20459;-70
2022/10/26 09:05:50;;;;;;;63.77;5.77;;;17.90;1.00;;;;;;5051536;28;20452;-70
2022/10/26 09:08:29;;;;;;;62.60;6.43;;;18.20;1.00;;;;;;5051595;28;20566;-70
2022/10/26 09:11:04;;;;;;;63.70;5.40;;;18.50;1.00;;;;;;5051374;28;20963;-71
2022/10/26 09:13:38;;;;;;;62.90;6.87;;;18.60;1.00;;;;;;5051510;28;20448;-70
2022/10/26 09:16:11;;;;;;;62.43;5.60;;;19.00;1.00;;;;;;5051376;28;20459;-70
2022/10/26 09:18:46;;;;;;;61.80;5.50;;;19.20;1.00;;;;;;5051113;28;20530;-70
2022/10/26 09:21:28;;;;;;;63.30;5.17;;;19.60;1.00;;;;;;5051380;28;20971;-73
2022/10/26 09:24:01;;;;;;;64.30;4.87;;;20.00;1.00;;;;;;5051368;28;20828;-74
2022/10/26 09:26:39;;;;;;;61.80;5.53;;;20.30;1.00;;;;;;5051234;28;20475;-73
2022/10/26 09:29:11;;;;;;;60.23;4.80;;;20.50;1.00;;;;;;5050948;28;20455;-73
2022/10/26 09:31:41;;;;;;;64.70;5.20;;;20.60;1.00;;;;;;5051383;28;20479;-74
2022/10/26 09:34:18;;;;;;;63.43;4.53;;;20.70;1.00;;;;;;5051631;28;20440;-73
2022/10/26 09:36:45;;;;;;;63.43;4.80;;;21.00;1.00;;;;;;5051008;28;20472;-73
2022/10/26 09:39:19;;;;;;;62.70;4.77;;;21.50;1.00;;;;;;5050885;28;20916;-74
2022/10/26 09:41:53;;;;;;;62.30;4.77;;;22.00;1.00;;;;;;5051398;28;20458;-71
2022/10/26 09:44:27;;;;;;;63.90;5.60;;;22.50;1.00;;;;;;5051508;28;20955;-71
2022/10/26 09:47:01;;;;;;;60.87;4.57;;;22.80;1.00;;;;;;5051096;28;20456;-71
2022/10/26 09:49:37;;;;;;;64.83;4.80;;;22.90;1.00;;;;;;5054350;28;20448;-71
2022/10/26 09:52:04;;;;;;;66.80;4.43;;;23.10;1.00;;;;;;5054944;28;20945;-71
2022/10/26 09:54:31;;;;;;;62.37;4.97;;;25.00;1.00;;;;;;5054923;28;20444;-72
2022/10/26 09:57:01;;;;;;;60.30;4.77;;;27.90;1.00;;;;;;5054518;28;20492;-71
2022/10/26 09:59:29;;;;;;;61.47;4.67;;;30.60;1.00;;;;;;5054419;28;20498;-71
2022/10/26 10:01:56;;;;;;;60.10;4.10;;;33.90;99.90;;;;;;5055067;28;20470;-72
2022/10/26 10:04:24;;;;;;;66.83;4.80;;;36.80;99.90;;;;;;5054784;28;20459;-72
2022/10/26 10:06:53;;;;;;;64.03;4.33;;;37.60;99.90;;;;;;5054604;28;20460;-72
2022/10/26 10:09:21;;;;;;;61.00;3.93;;;35.60;99.90;;;;;;5054320;28;20448;-73
2022/10/26 10:11:55;;;;;;;60.07;3.70;;;33.90;99.90;;;;;;5054483;28;20825;-72
2022/10/26 10:14:25;;;;;;;61.60;4.03;;;32.50;99.90;;;;;;5054334;28;20452;-72
2022/10/26 10:16:54;;;;;;;62.30;4.50;;;31.30;99.90;;;;;;5054479;28;20483;-72
2022/10/26 10:19:24;;;;;;;60.80;3.97;;;29.00;99.90;;;;;;5053980;28;20554;-72
2022/10/26 10:21:54;;;;;;;62.33;4.90;;;27.30;99.90;;;;;;5054396;28;20526;-71
2022/10/26 10:24:27;;;;;;;60.43;4.07;;;25.80;99.90;;;;;;5054349;28;20448;-72
2022/10/26 10:26:59;;;;;;;70.40;4.87;;;25.50;99.90;;;;;;5053968;28;20472;-72
2022/10/26 10:29:28;;;;;;;62.07;4.40;;;24.90;99.90;;;;;;5054094;28;20449;-71
2022/10/26 10:31:56;;;;;;;59.47;4.57;;;24.20;99.90;;;;;;5054306;28;20458;-72
2022/10/26 10:34:23;;;;;;;64.70;4.40;;;24.50;99.90;;;;;;5054108;28;20816;-72
2022/10/26 10:36:51;;;;;;;61.90;4.93;;;24.60;99.90;;;;;;5053782;28;20471;-72
2022/10/26 10:39:37;;;;;;;64.40;4.77;;;24.50;99.90;;;;;;5053486;28;20452;-71
2022/10/26 10:42:06;;;;;;;63.37;5.70;;;23.70;99.90;;;;;;5054028;28;20448;-72
2022/10/26 10:44:35;;;;;;;61.70;4.57;;;23.60;99.90;;;;;;5053830;28;20964;-72
2022/10/26 10:47:03;;;;;;;65.70;5.30;;;24.20;1.00;;;;;;5053743;28;20479;-71
2022/10/26 10:49:31;;;;;;;63.23;4.53;;;24.00;99.90;;;;;;5053322;28;20833;-71
2022/10/26 10:51:58;;;;;;;60.40;4.50;;;24.20;99.90;;;;;;5053791;28;20444;-71
2022/10/26 10:54:29;;;;;;;63.30;5.23;;;24.50;99.90;;;;;;5053931;28;20837;-72
2022/10/26 10:57:05;;;;;;;62.50;4.50;;;24.90;99.90;;;;;;5053898;28;20479;-71
2022/10/26 10:59:49;;;;;;;60.10;4.30;;;25.00;99.90;;;;;;5052370;28;20873;-72
2022/10/26 11:02:43;;;;;;;62.27;4.23;;;25.40;99.90;;;;;;5053351;28;20828;-72
2022/10/26 11:05:23;;;;;;;60.40;3.93;;;29.50;99.90;;;;;;5053632;28;20450;-72
2022/10/26 11:07:55;;;;;;;61.10;4.10;;;31.30;99.90;;;;;;5053403;28;20464;-72
2022/10/26 11:10:27;;;;;;;62.60;4.03;;;29.80;99.90;;;;;;5053032;28;20959;-72
2022/10/26 11:12:59;;;;;;;62.83;4.60;;;27.80;99.90;;;;;;5053554;28;20809;-71
2022/10/26 11:15:31;;;;;;;60.10;3.97;;;26.00;99.90;;;;;;5053384;28;20444;-72
2022/10/26 11:18:06;;;;;;;63.60;4.60;;;25.80;99.90;;;;;;5053074;28;20483;-72
2022/10/26 11:20:36;;;;;;;60.17;4.50;;;25.30;99.90;;;;;;5052980;28;20467;-72
2022/10/26 11:23:09;;;;;;;62.33;4.60;;;25.00;99.90;;;;;;5053013;28;20456;-72
2022/10/26 11:25:43;;;;;;;61.87;3.73;;;27.40;99.90;;;;;;5053228;28;20454;-73
2022/10/26 11:28:15;;;;;;;62.70;3.97;;;30.20;99.90;;;;;;5053042;28;20463;-72
2022/10/26 11:30:48;;;;;;;62.00;4.10;;;31.30;99.90;;;;;;5052799;28;20444;-73
2022/10/26 11:33:19;;;;;;;60.23;3.60;;;31.00;99.90;;;;;;5052943;28;20459;-72
2022/10/26 11:35:53;;;;;;;62.90;3.40;;;30.50;99.90;;;;;;5052849;28;20457;-72
2022/10/26 11:38:28;;;;;;;60.17;3.80;;;29.50;99.90;;;;;;5052646;28;20575;-72
2022/10/26 11:41:01;;;;;;;60.77;3.70;;;28.90;99.90;;;;;;5052680;28;20455;-72
2022/10/26 11:43:34;;;;;;;62.40;3.73;;;30.00;99.90;;;;;;5052961;28;20443;-72
2022/10/26 11:46:08;;;;;;;62.10;3.90;;;32.40;99.90;;;;;;5052722;28;20941;-72
2022/10/26 11:48:42;;;;;;;60.00;3.67;;;35.10;99.90;;;;;;5052648;28;20448;-73
2022/10/26 11:51:17;;;;;;;59.53;3.67;;;36.70;99.90;;;;;;5052847;28;20440;-73
2022/10/26 11:53:46;;;;;;;59.97;3.37;;;39.10;99.90;;;;;;5052560;28;20459;-73
2022/10/26 11:56:25;;;;;;;60.67;3.80;;;40.80;99.90;;;;;;5052254;28;20474;-71
2022/10/26 11:58:52;;;;;;;60.50;3.23;;;38.50;99.90;;;;;;5052232;28;20492;-72
2022/10/26 12:01:21;;;;;;;66.23;3.53;;;35.60;99.90;;;;;;5052456;28;20532;-73
2022/10/26 12:03:52;;;;;;;62.00;3.80;;;34.10;99.90;;;;;;5052404;28;20444;-73
2022/10/26 12:06:22;;;;;;;62.57;3.87;;;33.10;99.90;;;;;;5052220;28;20468;-73
2022/10/26 12:08:56;;;;;;;60.50;3.50;;;31.60;99.90;;;;;;5051808;28;20453;-72
2022/10/26 12:11:35;;;;;;;59.17;3.20;;;30.70;99.90;;;;;;5052451;28;20461;-72
2022/10/26 12:14:13;;;;;;;64.37;3.90;;;29.70;99.90;;;;;;5052424;28;20448;-72
2022/10/26 12:16:50;;;;;;;61.90;3.40;;;30.40;99.90;;;;;;5052152;28;20560;-72
2022/10/26 12:19:25;;;;;;;60.70;3.70;;;31.10;99.90;;;;;;5051881;28;20495;-72
2022/10/26 12:21:52;;;;;;;63.53;3.70;;;31.20;99.90;;;;;;5052233;28;20491;-73
2022/10/26 12:24:27;;;;;;;61.60;3.90;;;31.00;99.90;;;;;;5052125;28;20531;-72
2022/10/26 12:26:56;;;;;;;59.57;3.47;;;30.60;99.90;;;;;;5052038;28;20471;-72
2022/10/26 12:29:34;;;;;;;62.90;3.47;;;29.70;99.90;;;;;;5051506;28;20448;-72
2022/10/26 12:32:03;;;;;;;59.77;3.63;;;29.20;99.90;;;;;;5052114;28;20456;-72
2022/10/26 12:35:00;;;;;;;63.87;3.53;;;28.70;99.90;;;;;;5052307;28;20448;-72
2022/10/26 12:37:33;;;;;;;60.77;3.57;;;28.40;99.90;;;;;;5051723;28;20864;-72
2022/10/26 12:40:37;;;;;;;60.90;3.77;;;29.10;99.90;;;;;;5051524;28;21015;-72
2022/10/26 12:43:34;;;;;;;59.37;3.33;;;31.10;99.90;;;;;;5051699;28;20450;-73
2022/10/26 12:46:41;;;;;;;60.37;3.40;;;34.00;99.90;;;;;;5051617;28;20933;-72
2022/10/26 12:49:58;;;;;;;58.90;3.13;;;35.10;99.90;;;;;;5051339;28;20539;-72
2022/10/26 12:52:42;;;;;;;63.67;3.17;;;34.40;99.90;;;;;;5052096;28;20937;-72
2022/10/26 12:55:38;;;;;;;60.30;2.97;;;33.90;99.90;;;;;;5051582;28;20444;-73
2022/10/26 12:58:41;;;;;;;58.93;3.43;;;32.90;99.90;;;;;;5051327;28;20492;-72
2022/10/26 13:01:51;;;;;;;59.00;3.17;;;32.20;99.90;;;;;;5048839;28;20452;-72
2022/10/26 13:04:46;;;;;;;60.57;2.80;;;31.30;99.90;;;;;;5031603;28;20456;-72
2022/10/26 13:07:19;;;;;;;62.60;3.23;;;31.90;99.90;;;;;;5051267;28;20464;-72